Genoa City, Wisconsin
Current Conditions -  °F | °C
As of 6:15 AM on Monday 24 Nov 2014 (Local Time) from KBUU Reporting Station
Haze Haze  
Wind Chill: 40°   Ceiling: 200
Heat Index: 43°   Visibility: 2.5mi
Dew Point: 43°   Wind: 6mph
Humidity: 100%   Direction: 270°W
Pressure: 29.06"   Gusts: NA
Location:  42.5°N, 88.33°W
Report Text: KBUU 241215Z AUTO 27005KT 2 1/2SM BR OVC002 06/06 A2906 RMK AO2 T00620062
Loading
Personal Weather Stations






























Interactive Weather Map New forecast layout! Learn more

10-Day Weather Forecast

Advertisements
Track Severe Weather on mobile